Time;durP1;ratioP1;P1;durP2;ratioP2;P2;SDS_P1;SDS_P2;PMS_P1;PMS_P2;Temp;Humidity;BMP_temperature;BMP_pressure;BME280_temperature;BME280_humidity;BME280_pressure;Samples;Min_cycle;Max_cycle;Signal;HPM_P1;HPM_P2
2022/09/11 14:55:42;;;;;;;0.22;0.22;;;22.80;99.90;23.40;101736.00;;;;4956013;27;5748792;-73
2022/09/11 14:58:08;;;;;;;0.77;0.77;;;22.90;99.90;23.60;101742.00;;;;5130356;28;20171;-74
2022/09/11 15:00:39;;;;;;;1.38;1.27;;;23.10;99.90;24.00;101725.00;;;;5131624;28;20526;-73
2022/09/11 15:03:08;;;;;;;0.85;0.75;;;23.30;99.90;23.70;101746.00;;;;5129852;28;20628;-72
2022/09/11 15:05:43;;;;;;;1.15;0.98;;;23.10;99.90;24.20;101750.00;;;;5127039;28;20177;-75
2022/09/11 15:08:14;;;;;;;0.20;0.20;;;23.20;99.90;23.80;101750.00;;;;5114936;28;20201;-74
2022/09/11 15:10:52;;;;;;;0.20;0.20;;;23.30;99.90;24.10;101743.00;;;;5126974;28;20270;-72
2022/09/11 15:13:19;;;;;;;0.60;0.60;;;23.30;99.90;24.40;101754.00;;;;5097212;28;20175;-79
2022/09/11 15:15:46;;;;;;;0.30;0.30;;;23.40;99.90;24.00;101728.00;;;;5109404;28;20712;-72
2022/09/11 15:18:17;;;;;;;0.60;0.60;;;23.40;99.90;23.90;101744.00;;;;5124596;28;20187;-72
2022/09/11 15:20:44;;;;;;;0.10;0.10;;;23.30;99.90;24.10;101712.00;;;;5129686;28;20686;-72
2022/09/11 15:23:10;;;;;;;0.10;0.10;;;23.30;99.90;23.80;101744.00;;;;5111606;28;20298;-72
2022/09/11 15:25:36;;;;;;;1.15;1.15;;;23.20;99.90;24.10;101758.00;;;;5104074;28;20279;-72
2022/09/11 15:28:02;;;;;;;0.32;0.32;;;23.20;99.90;24.40;101712.00;;;;5109238;28;20178;-72
2022/09/11 15:30:28;;;;;;;0.22;0.20;;;23.40;99.90;24.20;101744.00;;;;5109770;28;20529;-72
2022/09/11 15:36:36;;;;;;;0.20;0.20;;;23.30;99.90;23.70;101740.00;;;;5126255;28;20210;-72
2022/09/11 15:39:05;;;;;;;0.10;0.10;;;23.10;99.90;24.70;101749.00;;;;5112542;28;20171;-72
2022/09/11 15:41:32;;;;;;;0.38;0.38;;;23.20;99.90;23.60;101707.00;;;;5120033;27;20228;-72
2022/09/11 15:43:58;;;;;;;0.45;0.45;;;23.20;99.90;24.10;101744.00;;;;5092215;28;20203;-72
2022/09/11 15:46:27;;;;;;;0.30;0.30;;;23.20;99.90;24.20;101736.00;;;;5109131;28;20178;-72
2022/09/11 15:48:52;;;;;;;0.10;0.10;;;23.20;99.90;24.60;101735.00;;;;5110271;28;20242;-72
2022/09/11 15:51:28;;;;;;;0.30;0.30;;;23.20;99.90;24.60;101707.00;;;;5110260;28;20195;-72
2022/09/11 15:53:59;;;;;;;0.30;0.30;;;23.40;99.90;24.30;101744.00;;;;5108363;28;20282;-72
2022/09/11 15:56:28;;;;;;;0.28;0.28;;;23.20;99.90;24.40;101741.00;;;;5109063;28;20184;-72
2022/09/11 15:58:57;;;;;;;0.65;0.65;;;23.30;99.90;24.40;101747.00;;;;5092053;28;20173;-72
2022/09/11 16:01:32;;;;;;;0.88;0.88;;;23.30;99.90;23.70;101735.00;;;;5092657;28;20247;-72
2022/09/11 16:04:06;;;;;;;0.20;0.20;;;23.20;99.90;23.90;101736.00;;;;5112108;28;20175;-71
2022/09/11 16:06:39;;;;;;;0.10;0.10;;;23.00;99.90;23.90;101719.00;;;;5104718;27;20176;-72
2022/09/11 16:09:24;;;;;;;0.15;0.15;;;22.90;99.90;24.00;101731.00;;;;5094936;28;20157;-72
2022/09/11 16:11:53;;;;;;;0.88;0.85;;;23.00;99.90;23.40;101687.00;;;;5095297;28;20186;-72
2022/09/11 16:14:31;;;;;;;1.17;0.40;;;22.80;99.90;24.00;101720.00;;;;5094607;28;20586;-74
2022/09/11 16:17:01;;;;;;;0.20;0.20;;;22.80;99.90;24.10;101728.00;;;;5095016;28;20587;-72
2022/09/11 16:19:28;;;;;;;0.10;0.10;;;22.90;99.90;24.30;101714.00;;;;5095112;28;20198;-72
2022/09/11 16:22:10;;;;;;;0.20;0.20;;;23.10;99.90;24.10;101716.00;;;;5095113;28;20174;-72
2022/09/11 16:24:36;;;;;;;1.27;1.17;;;23.10;99.90;23.70;101734.00;;;;5094495;28;20666;-72
2022/09/11 16:27:04;;;;;;;0.20;0.20;;;22.90;99.90;23.30;101725.00;;;;5095067;28;20314;-72
2022/09/11 16:29:31;;;;;;;0.73;0.30;;;22.70;99.90;23.60;101730.00;;;;5094781;28;20175;-72
2022/09/11 16:31:57;;;;;;;0.10;0.10;;;22.70;99.90;23.80;101730.00;;;;5096232;28;20165;-72
2022/09/11 16:34:36;;;;;;;0.25;0.25;;;22.70;99.90;24.30;101727.00;;;;5028402;28;20712;-72
2022/09/11 16:37:02;;;;;;;0.10;0.10;;;22.90;99.90;24.30;101733.00;;;;5067365;28;20171;-71
2022/09/11 16:39:28;;;;;;;0.13;0.13;;;23.00;99.90;23.90;101717.00;;;;5054368;28;20705;-73
2022/09/11 16:41:54;;;;;;;0.10;0.10;;;23.00;99.90;23.80;101713.00;;;;5037067;28;20178;-71
2022/09/11 16:44:21;;;;;;;0.10;0.10;;;22.90;99.90;24.00;101724.00;;;;5052946;28;20198;-71
2022/09/11 16:46:47;;;;;;;0.75;0.75;;;22.90;99.90;23.90;101716.00;;;;5054086;28;20186;-71
2022/09/11 16:49:27;;;;;;;0.10;0.10;;;22.80;99.90;24.00;101718.00;;;;5054021;28;20182;-71
2022/09/11 16:51:53;;;;;;;0.20;0.20;;;22.90;99.90;24.20;101718.00;;;;5037450;28;20189;-72
2022/09/11 16:54:21;;;;;;;0.20;0.20;;;23.00;99.90;24.00;101671.00;;;;5036900;28;20213;-71
2022/09/11 16:56:47;;;;;;;0.20;0.20;;;22.90;99.90;24.00;101716.00;;;;5055213;28;20210;-72
2022/09/11 16:59:21;;;;;;;0.90;0.90;;;22.90;99.90;24.10;101705.00;;;;5054311;28;20846;-72
2022/09/11 17:01:47;;;;;;;0.15;0.15;;;22.80;99.90;24.00;101703.00;;;;5054073;28;20512;-72
2022/09/11 17:04:13;;;;;;;0.20;0.20;;;22.80;99.90;24.00;101710.00;;;;5053849;28;20570;-71
2022/09/11 17:06:39;;;;;;;0.10;0.10;;;22.90;99.90;23.80;101679.00;;;;5053373;28;20174;-71
2022/09/11 17:09:05;;;;;;;0.20;0.20;;;22.80;99.90;24.00;101711.00;;;;5053630;28;20158;-71
2022/09/11 17:11:32;;;;;;;0.10;0.10;;;22.80;99.90;24.00;101703.00;;;;5053774;28;20198;-71
2022/09/11 17:14:02;;;;;;;0.20;0.20;;;22.80;99.90;24.20;101705.00;;;;5053353;28;20190;-72
2022/09/11 17:16:30;;;;;;;0.10;0.10;;;22.80;99.90;24.30;101719.00;;;;5053305;28;20219;-72
2022/09/11 17:18:59;;;;;;;0.20;0.20;;;22.80;99.90;24.40;101708.00;;;;5053149;28;20489;-72
2022/09/11 17:21:28;;;;;;;0.20;0.20;;;22.90;99.90;24.40;101692.00;;;;5054147;28;20178;-72
2022/09/11 17:23:56;;;;;;;0.13;0.13;;;23.00;99.90;24.10;101711.00;;;;5053343;28;20178;-72
2022/09/11 17:26:23;;;;;;;0.20;0.20;;;22.90;99.90;23.90;101699.00;;;;5053157;28;20181;-71
2022/09/11 17:28:50;;;;;;;0.20;0.20;;;22.70;99.90;24.10;101698.00;;;;5053416;28;20265;-71
2022/09/11 17:31:18;;;;;;;0.20;0.20;;;22.80;99.90;24.00;101684.00;;;;5053208;28;20178;-72
2022/09/11 17:34:09;;;;;;;0.20;0.20;;;22.80;99.90;23.90;101703.00;;;;5053109;28;20186;-71
2022/09/11 17:37:13;;;;;;;0.20;0.20;;;22.70;99.90;23.60;101690.00;;;;5047008;28;20197;-72
2022/09/11 17:40:17;;;;;;;0.20;0.20;;;22.50;99.90;23.70;101688.00;;;;5052524;28;20193;-71
2022/09/11 17:42:47;;;;;;;0.20;0.20;;;22.40;99.90;23.80;101684.00;;;;5038166;28;20178;-72
2022/09/11 17:45:16;;;;;;;0.40;0.40;;;22.50;99.90;23.90;101689.00;;;;5052915;28;20218;-71
2022/09/11 17:47:52;;;;;;;0.30;0.30;;;22.40;99.90;23.70;101672.00;;;;5049879;28;20672;-72
2022/09/11 17:50:26;;;;;;;0.30;0.30;;;22.40;99.90;23.60;101632.00;;;;5016275;28;20776;-71
2022/09/11 17:52:53;;;;;;;0.20;0.20;;;22.30;99.90;23.60;101662.00;;;;5032893;28;20182;-72
2022/09/11 17:55:21;;;;;;;0.20;0.20;;;22.30;99.90;23.50;101663.00;;;;5032568;28;20210;-72
2022/09/11 17:57:53;;;;;;;0.20;0.20;;;22.30;99.90;23.40;101666.00;;;;5050275;28;20194;-72
2022/09/11 18:00:19;;;;;;;0.20;0.20;;;22.20;99.90;23.20;101660.00;;;;5035867;28;20209;-72
2022/09/11 18:02:48;;;;;;;0.20;0.20;;;22.10;99.90;22.90;101618.00;;;;5065539;28;20182;-71
2022/09/11 18:05:15;;;;;;;0.20;0.20;;;21.80;99.90;23.00;101652.00;;;;5031809;28;20175;-71
2022/09/11 18:07:52;;;;;;;0.55;0.55;;;21.80;99.90;23.00;101642.00;;;;5050245;28;20174;-71
2022/09/11 18:10:22;;;;;;;0.20;0.20;;;21.70;99.90;22.70;101663.00;;;;5017432;28;20244;-71
2022/09/11 18:12:48;;;;;;;0.20;0.20;;;21.60;99.90;22.70;101650.00;;;;5016454;28;20183;-72
2022/09/11 18:15:17;;;;;;;0.30;0.30;;;21.50;99.90;22.60;101648.00;;;;5020736;28;20255;-72
2022/09/11 18:18:03;;;;;;;0.30;0.30;;;21.40;99.90;22.60;101651.00;;;;5052259;28;20621;-72
2022/09/11 18:20:29;;;;;;;0.30;0.30;;;21.40;99.90;22.60;101659.00;;;;5052370;28;20285;-72
2022/09/11 18:22:56;;;;;;;0.30;0.30;;;21.30;99.90;22.40;101644.00;;;;5065614;28;20191;-72
2022/09/11 18:25:24;;;;;;;0.30;0.30;;;21.10;99.90;22.60;101659.00;;;;5033513;28;20670;-72
2022/09/11 18:27:50;;;;;;;0.30;0.30;;;21.20;99.90;22.70;101615.00;;;;5032538;28;20159;-73
2022/09/11 18:30:16;;;;;;;0.30;0.30;;;21.20;99.90;22.60;101652.00;;;;5032249;28;20166;-73
2022/09/11 18:32:42;;;;;;;0.30;0.30;;;21.20;99.90;22.50;101657.00;;;;5032368;28;20173;-73
2022/09/11 18:35:08;;;;;;;0.30;0.30;;;21.30;99.90;22.50;101644.00;;;;5035214;28;20213;-73
2022/09/11 18:37:34;;;;;;;0.30;0.30;;;21.30;99.90;22.40;101655.00;;;;5051885;28;20229;-73
2022/09/11 18:40:00;;;;;;;0.40;0.40;;;21.20;99.90;22.10;101651.00;;;;5052107;28;20618;-72
2022/09/11 18:42:26;;;;;;;0.30;0.30;;;20.90;99.90;22.20;101657.00;;;;5051725;28;20514;-72
2022/09/11 18:44:52;;;;;;;0.30;0.30;;;20.90;99.90;22.20;101658.00;;;;5052128;28;20524;-72
2022/09/11 18:47:19;;;;;;;0.30;0.30;;;20.90;99.90;22.00;101652.00;;;;5053067;28;20260;-73
2022/09/11 18:49:47;;;;;;;0.30;0.30;;;20.80;99.90;22.20;101653.00;;;;5035775;28;20633;-72
2022/09/11 18:52:13;;;;;;;0.30;0.30;;;20.80;99.90;22.20;101652.00;;;;5052011;28;20257;-72
2022/09/11 18:54:39;;;;;;;0.30;0.30;;;20.80;99.90;22.00;101659.00;;;;5052859;28;20301;-72
2022/09/11 18:57:05;;;;;;;0.40;0.40;;;20.80;99.90;22.00;101657.00;;;;5053370;28;20201;-72
2022/09/11 18:59:52;;;;;;;0.40;0.40;;;20.80;99.90;22.00;101656.00;;;;5051932;28;20676;-72
2022/09/11 19:02:18;;;;;;;0.30;0.30;;;20.70;99.90;22.20;101657.00;;;;5051470;28;20192;-71
2022/09/11 19:04:45;;;;;;;0.30;0.30;;;20.90;99.90;22.00;101596.00;;;;5035262;28;20183;-72
2022/09/11 19:07:13;;;;;;;0.40;0.40;;;20.70;99.90;21.50;101652.00;;;;5051849;28;20182;-71
2022/09/11 19:09:47;;;;;;;0.40;0.40;;;20.50;99.90;21.30;101652.00;;;;5051116;28;20239;-72
2022/09/11 19:12:36;;;;;;;0.40;0.40;;;20.20;99.90;21.40;101642.00;;;;5029731;28;20288;-71
2022/09/11 19:15:42;;;;;;;0.50;0.50;;;20.10;99.90;21.60;101616.00;;;;5051478;28;20256;-72
2022/09/11 19:18:29;;;;;;;0.40;0.40;;;20.20;99.90;21.50;101603.00;;;;5049791;28;20195;-72
2022/09/11 19:21:21;;;;;;;0.40;0.40;;;20.20;99.90;21.50;101622.00;;;;5051761;28;20177;-72
2022/09/11 19:24:13;;;;;;;0.43;0.43;;;20.20;99.90;21.10;101639.00;;;;5034608;28;20173;-72
2022/09/11 19:27:10;;;;;;;0.40;0.40;;;20.10;99.90;21.00;101644.00;;;;5014974;28;20200;-72
2022/09/11 19:29:56;;;;;;;0.43;0.43;;;19.90;99.90;20.60;101631.00;;;;5031633;28;20377;-72
2022/09/11 19:32:37;;;;;;;0.40;0.40;;;19.70;99.90;20.50;101627.00;;;;5040303;28;20184;-72
2022/09/11 19:35:45;;;;;;;0.40;0.40;;;19.60;99.90;20.70;101633.00;;;;5034334;28;20224;-72
2022/09/11 19:38:36;;;;;;;0.40;0.40;;;19.50;99.90;20.30;101632.00;;;;5050929;28;20271;-71
2022/09/11 19:41:04;;;;;;;0.50;0.50;;;19.40;99.90;20.90;101630.00;;;;5054104;28;20203;-72
2022/09/11 19:43:56;;;;;;;0.40;0.40;;;19.50;99.90;20.80;101638.00;;;;5054933;28;20190;-72
2022/09/11 19:46:52;;;;;;;0.40;0.40;;;19.50;99.90;20.60;101634.00;;;;5054997;28;20184;-72
2022/09/11 19:49:40;;;;;;;0.40;0.40;;;19.40;99.90;20.20;101622.00;;;;5039024;28;20173;-72
2022/09/11 19:52:29;;;;;;;0.32;0.32;;;19.30;99.90;20.30;101628.00;;;;5055174;28;20174;-72
2022/09/11 19:55:03;;;;;;;0.43;0.43;;;19.30;99.90;20.50;101623.00;;;;5053872;28;20626;-72
2022/09/11 19:57:37;;;;;;;0.40;0.40;;;19.30;99.90;20.60;101605.00;;;;5054612;28;20263;-72
2022/09/11 20:00:14;;;;;;;0.40;0.40;;;19.30;99.90;20.70;101592.00;;;;5054216;28;20511;-71
2022/09/11 20:03:20;;;;;;;0.40;0.40;;;19.50;99.90;20.70;101604.00;;;;5054659;28;20262;-72
2022/09/11 20:06:08;;;;;;;0.40;0.40;;;19.60;99.90;20.40;101629.00;;;;5053393;28;20679;-72
2022/09/11 20:08:49;;;;;;;0.40;0.40;;;19.30;99.90;20.60;101631.00;;;;5054654;28;20184;-72
2022/09/11 20:11:27;;;;;;;0.40;0.40;;;19.30;99.90;20.50;101612.00;;;;5054997;28;20200;-72
2022/09/11 20:14:21;;;;;;;0.40;0.40;;;19.30;99.90;20.30;101630.00;;;;5054727;28;20202;-71
2022/09/11 20:16:48;;;;;;;0.73;0.73;;;19.30;99.90;19.90;101607.00;;;;5050905;28;20601;-72
2022/09/11 20:19:43;;;;;;;0.70;0.70;;;19.10;99.90;20.10;101590.00;;;;5054686;28;20276;-72
2022/09/11 20:22:08;;;;;;;0.40;0.40;;;19.10;99.90;20.30;101625.00;;;;5055126;28;20188;-71
2022/09/11 20:24:43;;;;;;;0.73;0.63;;;19.20;99.90;20.10;101618.00;;;;5054266;28;20252;-72
2022/09/11 20:27:09;;;;;;;0.40;0.40;;;19.10;99.90;20.20;101580.00;;;;5037882;28;20185;-72
2022/09/11 20:29:58;;;;;;;0.40;0.40;;;19.10;99.90;20.10;101628.00;;;;5053421;28;20183;-73
2022/09/11 20:32:23;;;;;;;0.40;0.40;;;19.10;99.90;19.90;101616.00;;;;5053525;28;20180;-72
2022/09/11 20:34:50;;;;;;;0.30;0.30;;;19.10;99.90;20.20;101628.00;;;;5053797;28;20200;-72
2022/09/11 20:37:16;;;;;;;0.33;0.33;;;19.10;99.90;20.30;101576.00;;;;5053990;28;20208;-72
2022/09/11 20:39:41;;;;;;;0.40;0.40;;;19.20;99.90;20.60;101626.00;;;;5037544;28;20624;-72
2022/09/11 20:42:07;;;;;;;0.30;0.30;;;19.30;99.90;20.40;101628.00;;;;5054703;28;20259;-71
2022/09/11 20:44:33;;;;;;;0.40;0.40;;;19.20;99.90;20.40;101614.00;;;;5037088;28;20196;-71
2022/09/11 20:46:59;;;;;;;0.40;0.40;;;19.20;99.90;20.40;101615.00;;;;5053956;28;20596;-71
2022/09/11 20:49:25;;;;;;;0.40;0.40;;;19.20;99.90;20.30;101617.00;;;;5053580;28;20157;-71
2022/09/11 20:51:51;;;;;;;2.30;2.10;;;19.30;99.90;19.90;101606.00;;;;5053833;28;20184;-71
2022/09/11 20:54:20;;;;;;;0.40;0.40;;;19.00;99.90;19.90;101578.00;;;;5054709;28;20659;-71
2022/09/11 20:56:46;;;;;;;0.40;0.40;;;18.90;99.90;19.70;101616.00;;;;5053456;28;20522;-71
2022/09/11 20:59:21;;;;;;;0.57;0.57;;;18.80;99.90;20.00;101614.00;;;;5053270;28;20168;-72
2022/09/11 21:01:48;;;;;;;0.40;0.40;;;18.80;99.90;19.70;101615.00;;;;5053764;28;20208;-71
2022/09/11 21:04:24;;;;;;;0.30;0.30;;;18.80;99.90;19.90;101598.00;;;;5053992;28;20186;-71
2022/09/11 21:06:53;;;;;;;0.30;0.30;;;18.80;99.90;20.00;101607.00;;;;5037139;28;20537;-71
2022/09/11 21:09:21;;;;;;;0.50;0.50;;;18.90;99.90;19.30;101592.00;;;;5036942;28;20183;-71
2022/09/11 21:11:50;;;;;;;0.40;0.40;;;18.60;99.90;19.20;101593.00;;;;5049929;28;20181;-71
2022/09/11 21:14:16;;;;;;;0.30;0.30;;;18.40;99.90;18.70;101583.00;;;;5022870;28;20203;-71
2022/09/11 21:16:42;;;;;;;0.40;0.40;;;18.20;99.90;19.20;101590.00;;;;5033496;28;20199;-71
2022/09/11 21:19:10;;;;;;;0.40;0.40;;;18.20;99.90;19.40;101592.00;;;;5032544;28;20538;-71
2022/09/11 21:21:39;;;;;;;0.30;0.30;;;18.30;99.90;19.50;101598.00;;;;5041646;28;20196;-70
2022/09/11 21:24:31;;;;;;;0.30;0.30;;;18.40;99.90;19.20;101586.00;;;;5052771;28;20183;-69
2022/09/11 21:26:57;;;;;;;0.40;0.40;;;18.30;99.90;19.10;101585.00;;;;5037003;28;20190;-71
2022/09/11 21:29:25;;;;;;;0.40;0.40;;;18.20;99.90;19.40;101586.00;;;;5037214;28;20175;-71
2022/09/11 21:31:52;;;;;;;0.40;0.40;;;18.30;99.90;19.20;101527.00;;;;5053239;28;20174;-71
2022/09/11 21:34:18;;;;;;;0.43;0.43;;;18.20;99.90;19.40;101583.00;;;;5053200;28;20190;-71
2022/09/11 21:37:03;;;;;;;0.40;0.40;;;18.20;99.90;19.00;101550.00;;;;5052753;28;20183;-71
2022/09/11 21:39:47;;;;;;;0.30;0.30;;;18.20;99.90;19.20;101583.00;;;;5053403;28;20185;-70
2022/09/11 21:42:13;;;;;;;0.40;0.40;;;18.20;99.90;18.60;101562.00;;;;5053028;28;20175;-71
2022/09/11 21:44:46;;;;;;;0.30;0.30;;;18.10;99.90;18.80;101570.00;;;;5053258;28;20185;-70
2022/09/11 21:47:32;;;;;;;0.80;0.77;;;18.00;99.90;18.40;101541.00;;;;5036551;28;20225;-71
2022/09/11 21:49:58;;;;;;;0.30;0.30;;;17.90;99.90;18.60;101572.00;;;;5053083;28;20170;-71
2022/09/11 21:52:23;;;;;;;0.30;0.30;;;17.80;99.90;18.50;101555.00;;;;5053210;28;20518;-70
2022/09/11 21:54:53;;;;;;;0.30;0.30;;;17.80;99.90;18.20;101513.00;;;;5053904;28;20278;-69
2022/09/11 21:57:27;;;;;;;0.30;0.30;;;17.60;99.90;18.10;101570.00;;;;5052958;28;20179;-69
2022/09/11 22:00:15;;;;;;;0.30;0.30;;;17.50;99.90;18.00;101514.00;;;;5052851;28;20521;-69
2022/09/11 22:02:58;;;;;;;0.50;0.50;;;17.50;99.90;18.10;101577.00;;;;5035342;28;20266;-69
2022/09/11 22:05:24;;;;;;;0.30;0.30;;;17.50;99.90;18.20;101552.00;;;;5051822;28;20185;-71
2022/09/11 22:07:49;;;;;;;0.30;0.30;;;17.60;99.90;18.10;101565.00;;;;5052010;28;20189;-70
2022/09/11 22:10:22;;;;;;;0.40;0.40;;;17.50;99.90;17.80;101564.00;;;;5053698;28;20607;-70
2022/09/11 22:12:53;;;;;;;0.40;0.40;;;17.40;99.90;18.00;101558.00;;;;5035470;28;20594;-70
2022/09/11 22:15:21;;;;;;;0.80;0.80;;;17.40;99.90;18.20;101562.00;;;;5053526;28;20237;-71
2022/09/11 22:18:07;;;;;;;1.00;1.00;;;17.50;99.90;18.10;101556.00;;;;5053464;28;20178;-70
2022/09/11 22:20:34;;;;;;;0.50;0.50;;;17.60;99.90;18.10;101567.00;;;;5052525;28;20158;-69
2022/09/11 22:33:28;;;;;;;0.40;0.40;;;17.00;99.90;17.20;101525.00;;;;5090371;28;20608;-70
2022/09/11 22:35:54;;;;;;;0.20;0.20;;;17.00;99.90;17.60;101520.00;;;;5051476;28;20185;-70
2022/09/11 22:38:20;;;;;;;0.40;0.40;;;17.10;99.90;17.90;101511.00;;;;5052573;28;20206;-70
2022/09/11 22:40:52;;;;;;;0.30;0.30;;;17.30;99.90;17.80;101492.00;;;;5070532;28;20212;-70
2022/09/11 22:43:18;;;;;;;0.40;0.40;;;17.30;99.90;17.90;101519.00;;;;5052575;28;20242;-70
2022/09/11 22:46:02;;;;;;;0.30;0.30;;;17.30;99.90;17.90;101518.00;;;;5070066;28;20511;-70
2022/09/11 22:48:28;;;;;;;0.30;0.30;;;17.30;99.90;18.00;101521.00;;;;5052559;28;20203;-70
2022/09/11 22:51:21;;;;;;;0.30;0.30;;;17.40;99.90;17.90;101519.00;;;;5070211;28;20215;-70
2022/09/11 22:53:50;;;;;;;1.17;1.07;;;17.30;99.90;17.90;101521.00;;;;5052523;28;20185;-70
2022/09/11 22:56:16;;;;;;;0.30;0.30;;;17.40;99.90;17.60;101478.00;;;;5052646;28;20176;-71
2022/09/11 22:58:59;;;;;;;0.30;0.30;;;17.20;99.90;17.80;101506.00;;;;5052379;28;20633;-70
2022/09/11 23:01:25;;;;;;;0.30;0.30;;;17.20;99.90;17.50;101515.00;;;;5052234;28;20548;-71
2022/09/11 23:03:52;;;;;;;0.30;0.30;;;17.10;99.90;17.70;101495.00;;;;5068357;28;20182;-70
2022/09/11 23:09:11;;;;;;;0.30;0.30;;;17.30;99.90;17.60;101523.00;;;;5054377;28;20273;-70
2022/09/11 23:11:46;;;;;;;0.30;0.30;;;17.20;99.90;17.80;101517.00;;;;5051971;28;20208;-70
2022/09/11 23:14:13;;;;;;;0.30;0.30;;;17.10;99.90;18.00;101515.00;;;;5051755;28;20191;-70
2022/09/11 23:16:39;;;;;;;0.30;0.30;;;17.10;99.90;18.10;101468.00;;;;5051701;28;20180;-70
2022/09/11 23:19:05;;;;;;;0.30;0.30;;;17.20;99.90;17.30;101488.00;;;;5051990;28;20202;-70
2022/09/11 23:21:34;;;;;;;0.30;0.30;;;17.00;99.90;17.20;101504.00;;;;5051484;28;20242;-69
2022/09/11 23:24:01;;;;;;;0.30;0.30;;;16.90;99.90;17.10;101500.00;;;;5051790;28;20177;-70
2022/09/11 23:26:28;;;;;;;1.03;0.60;;;16.70;99.90;17.30;101503.00;;;;5051466;28;20181;-70
2022/09/11 23:28:54;;;;;;;0.30;0.30;;;16.80;99.90;17.30;101488.00;;;;5051786;28;20186;-70
2022/09/11 23:31:28;;;;;;;0.30;0.30;;;16.70;99.90;17.10;101506.00;;;;5051541;28;20675;-70
2022/09/11 23:33:57;;;;;;;0.30;0.30;;;16.70;99.90;17.10;101497.00;;;;5068234;28;20550;-70
2022/09/11 23:36:24;;;;;;;0.30;0.30;;;16.60;99.90;17.20;101507.00;;;;5050619;28;20199;-70
2022/09/11 23:38:51;;;;;;;0.30;0.30;;;16.70;99.90;17.60;101494.00;;;;5051215;28;20672;-70
2022/09/11 23:41:17;;;;;;;0.50;0.50;;;16.80;99.90;17.70;101501.00;;;;5068219;28;20190;-70
2022/09/11 23:43:45;;;;;;;0.30;0.30;;;17.00;99.90;18.10;101512.00;;;;5042917;28;20270;-70
2022/09/11 23:46:13;;;;;;;0.30;0.30;;;17.30;99.90;17.10;101501.00;;;;5038780;28;20169;-70
2022/09/11 23:48:42;;;;;;;0.30;0.30;;;16.90;99.90;17.10;101504.00;;;;5038207;28;20161;-70
2022/09/11 23:51:09;;;;;;;0.53;0.50;;;16.80;99.90;17.00;101466.00;;;;5054457;28;20185;-70
2022/09/11 23:53:38;;;;;;;0.30;0.30;;;16.70;99.90;17.10;101494.00;;;;5037818;28;20681;-69
2022/09/11 23:56:05;;;;;;;0.30;0.30;;;16.60;99.90;17.50;101501.00;;;;5055849;28;20226;-69
2022/09/11 23:58:31;;;;;;;0.30;0.30;;;16.70;99.90;18.10;101495.00;;;;5038038;28;20176;-70
